Terminal Aerodrome Forecast
Issued by NWS Chicago, IL

Home | Current Version | Previous Version | Graphics & Text | Print | Product List | Glossary On
Versions: 1 2 3 4 5 6 7 8 9 10 11 12 13 14 15 16 17 18 19 20 21 22 23 24 25 26 27 28 29 30 31 32 33 34 35 36
000
FTUS43 KLOT 300500
TAFRFD
TAF
KRFD 300538Z 3006/3106 20009KT P6SM VCSH FEW035 BKN060
     FM301500 23011KT P6SM SCT040
     FM301600 22012G20KT P6SM BKN035 PROB30 3016/3020 5SM -TSRA
      BKN030CB
     FM310100 26004KT P6SM SCT250=

USA.gov is the U.S. government's official web portal to all federal, state and local government web resources and services.